Terminal Aerodrome Forecast
Issued by NWS

Home | Current Version | Previous Version | Text Only | Print | Product List | Glossary On
Versions: 1 2 3 4 5 6 7 8 9 10 11 12
000
FTUS42 KTBW 250520
TAFPIE
TAF
KPIE 250520Z 2506/2606 00000KT P6SM FEW250
     FM251500 06005KT P6SM SCT030 SCT250
     FM251900 31008KT P6SM VCTS SCT045CB SCT250
     FM260200 12004KT P6SM SCT035 BKN250=

USA.gov is the U.S. government's official web portal to all federal, state and local government web resources and services.